sensor_id;sensor_type;location;lat;lon;timestamp;temperature;humidity
33793;DHT22;20105;48.764;9.178;2022-11-15T00:00:21;9.30;99.90
33793;DHT22;20105;48.764;9.178;2022-11-15T00:02:47;9.30;99.90
33793;DHT22;20105;48.764;9.178;2022-11-15T00:05:12;9.40;99.90
33793;DHT22;20105;48.764;9.178;2022-11-15T00:07:38;9.40;99.90
33793;DHT22;20105;48.764;9.178;2022-11-15T00:10:04;9.40;99.90
33793;DHT22;20105;48.764;9.178;2022-11-15T00:12:29;9.40;99.90
33793;DHT22;20105;48.764;9.178;2022-11-15T00:14:55;9.30;99.90
33793;DHT22;20105;48.764;9.178;2022-11-15T00:17:21;9.40;99.90
33793;DHT22;20105;48.764;9.178;2022-11-15T00:19:46;9.30;99.90
33793;DHT22;20105;48.764;9.178;2022-11-15T00:22:12;9.50;99.90
33793;DHT22;20105;48.764;9.178;2022-11-15T00:24:37;10.00;99.90
33793;DHT22;20105;48.764;9.178;2022-11-15T00:27:03;10.20;99.90
33793;DHT22;20105;48.764;9.178;2022-11-15T00:29:28;10.50;99.90
33793;DHT22;20105;48.764;9.178;2022-11-15T00:31:54;10.90;99.90
33793;DHT22;20105;48.764;9.178;2022-11-15T00:34:19;11.10;99.90
33793;DHT22;20105;48.764;9.178;2022-11-15T00:36:45;11.10;99.90
33793;DHT22;20105;48.764;9.178;2022-11-15T00:39:10;11.10;99.90
33793;DHT22;20105;48.764;9.178;2022-11-15T00:41:36;10.80;99.90
33793;DHT22;20105;48.764;9.178;2022-11-15T00:44:02;10.60;99.90
33793;DHT22;20105;48.764;9.178;2022-11-15T00:46:27;10.30;99.90
33793;DHT22;20105;48.764;9.178;2022-11-15T00:48:53;10.00;99.90
33793;DHT22;20105;48.764;9.178;2022-11-15T00:51:18;9.80;99.90
33793;DHT22;20105;48.764;9.178;2022-11-15T00:53:44;9.60;99.90
33793;DHT22;20105;48.764;9.178;2022-11-15T00:56:09;9.50;99.90
33793;DHT22;20105;48.764;9.178;2022-11-15T00:58:35;9.40;99.90
33793;DHT22;20105;48.764;9.178;2022-11-15T01:01:08;9.40;99.90
33793;DHT22;20105;48.764;9.178;2022-11-15T01:03:38;9.40;99.90
33793;DHT22;20105;48.764;9.178;2022-11-15T01:06:05;9.40;99.90
33793;DHT22;20105;48.764;9.178;2022-11-15T01:08:30;9.40;99.90
33793;DHT22;20105;48.764;9.178;2022-11-15T01:11:04;9.40;99.90
33793;DHT22;20105;48.764;9.178;2022-11-15T01:13:31;9.40;99.90
33793;DHT22;20105;48.764;9.178;2022-11-15T01:15:57;9.40;99.90
33793;DHT22;20105;48.764;9.178;2022-11-15T01:18:23;9.30;99.90
33793;DHT22;20105;48.764;9.178;2022-11-15T01:20:48;9.30;99.90
33793;DHT22;20105;48.764;9.178;2022-11-15T01:23:14;9.30;99.90
33793;DHT22;20105;48.764;9.178;2022-11-15T01:25:40;9.20;99.90
33793;DHT22;20105;48.764;9.178;2022-11-15T01:28:06;9.10;99.90
33793;DHT22;20105;48.764;9.178;2022-11-15T01:30:31;9.10;99.90
33793;DHT22;20105;48.764;9.178;2022-11-15T01:32:57;9.00;99.90
33793;DHT22;20105;48.764;9.178;2022-11-15T01:35:22;9.00;99.90
33793;DHT22;20105;48.764;9.178;2022-11-15T01:37:48;8.90;99.90
33793;DHT22;20105;48.764;9.178;2022-11-15T01:40:14;8.90;99.90
33793;DHT22;20105;48.764;9.178;2022-11-15T01:42:40;8.80;99.90
33793;DHT22;20105;48.764;9.178;2022-11-15T01:45:07;8.70;99.90
33793;DHT22;20105;48.764;9.178;2022-11-15T01:47:42;8.60;99.90
33793;DHT22;20105;48.764;9.178;2022-11-15T01:50:12;8.60;99.90
33793;DHT22;20105;48.764;9.178;2022-11-15T01:52:40;8.40;99.90
33793;DHT22;20105;48.764;9.178;2022-11-15T01:55:25;8.40;99.90
33793;DHT22;20105;48.764;9.178;2022-11-15T01:57:54;8.30;99.90
33793;DHT22;20105;48.764;9.178;2022-11-15T02:00:21;8.20;99.90
33793;DHT22;20105;48.764;9.178;2022-11-15T02:02:47;8.20;99.90
33793;DHT22;20105;48.764;9.178;2022-11-15T02:05:12;8.20;99.90
33793;DHT22;20105;48.764;9.178;2022-11-15T02:07:38;8.10;99.90
33793;DHT22;20105;48.764;9.178;2022-11-15T02:10:12;8.10;99.90
33793;DHT22;20105;48.764;9.178;2022-11-15T02:12:38;8.10;99.90
33793;DHT22;20105;48.764;9.178;2022-11-15T02:15:08;8.20;99.90
33793;DHT22;20105;48.764;9.178;2022-11-15T02:34:30;8.30;99.90
33793;DHT22;20105;48.764;9.178;2022-11-15T02:37:11;8.30;99.90
33793;DHT22;20105;48.764;9.178;2022-11-15T02:39:41;8.20;99.90
33793;DHT22;20105;48.764;9.178;2022-11-15T02:42:18;8.10;99.90
33793;DHT22;20105;48.764;9.178;2022-11-15T02:45:06;8.00;99.90
33793;DHT22;20105;48.764;9.178;2022-11-15T02:47:37;8.10;99.90
33793;DHT22;20105;48.764;9.178;2022-11-15T02:50:16;8.10;99.90
33793;DHT22;20105;48.764;9.178;2022-11-15T02:52:45;8.10;99.90
33793;DHT22;20105;48.764;9.178;2022-11-15T02:55:35;8.10;99.90
33793;DHT22;20105;48.764;9.178;2022-11-15T03:01:12;8.20;99.90
33793;DHT22;20105;48.764;9.178;2022-11-15T03:06:49;8.20;99.90
33793;DHT22;20105;48.764;9.178;2022-11-15T03:09:34;8.30;99.90
33793;DHT22;20105;48.764;9.178;2022-11-15T03:12:08;8.30;99.90
33793;DHT22;20105;48.764;9.178;2022-11-15T03:14:44;8.30;99.90
33793;DHT22;20105;48.764;9.178;2022-11-15T03:17:26;8.20;99.90
33793;DHT22;20105;48.764;9.178;2022-11-15T03:19:54;8.20;99.90
33793;DHT22;20105;48.764;9.178;2022-11-15T03:22:23;8.20;99.90
33793;DHT22;20105;48.764;9.178;2022-11-15T03:24:55;8.20;99.90
33793;DHT22;20105;48.764;9.178;2022-11-15T03:27:27;8.10;99.90
33793;DHT22;20105;48.764;9.178;2022-11-15T03:29:58;8.10;99.90
33793;DHT22;20105;48.764;9.178;2022-11-15T03:32:28;8.10;99.90
33793;DHT22;20105;48.764;9.178;2022-11-15T03:35:20;8.10;99.90
33793;DHT22;20105;48.764;9.178;2022-11-15T03:38:08;8.10;99.90
33793;DHT22;20105;48.764;9.178;2022-11-15T03:40:39;8.20;99.90
33793;DHT22;20105;48.764;9.178;2022-11-15T03:46:01;8.20;99.90
33793;DHT22;20105;48.764;9.178;2022-11-15T03:48:35;8.20;99.90
33793;DHT22;20105;48.764;9.178;2022-11-15T03:51:03;8.20;99.90
33793;DHT22;20105;48.764;9.178;2022-11-15T03:53:29;8.20;99.90
33793;DHT22;20105;48.764;9.178;2022-11-15T03:55:56;8.20;99.90
33793;DHT22;20105;48.764;9.178;2022-11-15T03:58:22;8.20;99.90
33793;DHT22;20105;48.764;9.178;2022-11-15T04:00:47;8.20;99.90
33793;DHT22;20105;48.764;9.178;2022-11-15T04:03:14;8.30;99.90
33793;DHT22;20105;48.764;9.178;2022-11-15T04:05:39;8.30;99.90
33793;DHT22;20105;48.764;9.178;2022-11-15T04:08:05;8.30;99.90
33793;DHT22;20105;48.764;9.178;2022-11-15T04:10:30;8.20;99.90
33793;DHT22;20105;48.764;9.178;2022-11-15T04:12:56;8.20;99.90
33793;DHT22;20105;48.764;9.178;2022-11-15T04:15:23;8.20;99.90
33793;DHT22;20105;48.764;9.178;2022-11-15T04:17:50;8.30;99.90
33793;DHT22;20105;48.764;9.178;2022-11-15T04:20:34;8.30;99.90
33793;DHT22;20105;48.764;9.178;2022-11-15T04:23:20;8.30;99.90
33793;DHT22;20105;48.764;9.178;2022-11-15T04:26:08;8.30;99.90
33793;DHT22;20105;48.764;9.178;2022-11-15T04:28:35;8.30;99.90
33793;DHT22;20105;48.764;9.178;2022-11-15T04:31:21;8.30;99.90
33793;DHT22;20105;48.764;9.178;2022-11-15T04:33:46;8.40;99.90
33793;DHT22;20105;48.764;9.178;2022-11-15T04:36:12;8.40;99.90
33793;DHT22;20105;48.764;9.178;2022-11-15T04:38:56;8.30;99.90
33793;DHT22;20105;48.764;9.178;2022-11-15T04:41:21;8.30;99.90
33793;DHT22;20105;48.764;9.178;2022-11-15T04:43:47;8.30;99.90
33793;DHT22;20105;48.764;9.178;2022-11-15T04:46:12;8.30;99.90
33793;DHT22;20105;48.764;9.178;2022-11-15T04:48:38;8.30;99.90
33793;DHT22;20105;48.764;9.178;2022-11-15T04:51:04;8.20;99.90
33793;DHT22;20105;48.764;9.178;2022-11-15T04:53:29;8.10;99.90
33793;DHT22;20105;48.764;9.178;2022-11-15T04:55:55;8.00;99.90
33793;DHT22;20105;48.764;9.178;2022-11-15T04:58:20;7.90;99.90
33793;DHT22;20105;48.764;9.178;2022-11-15T05:00:46;7.90;99.90
33793;DHT22;20105;48.764;9.178;2022-11-15T05:03:12;7.90;99.90
33793;DHT22;20105;48.764;9.178;2022-11-15T05:05:57;7.90;99.90
33793;DHT22;20105;48.764;9.178;2022-11-15T05:08:23;7.90;99.90
33793;DHT22;20105;48.764;9.178;2022-11-15T05:10:48;7.90;99.90
33793;DHT22;20105;48.764;9.178;2022-11-15T05:13:14;7.90;99.90
33793;DHT22;20105;48.764;9.178;2022-11-15T05:15:39;7.90;99.90
33793;DHT22;20105;48.764;9.178;2022-11-15T05:18:05;8.00;99.90
33793;DHT22;20105;48.764;9.178;2022-11-15T05:20:30;7.90;99.90
33793;DHT22;20105;48.764;9.178;2022-11-15T05:22:56;7.90;99.90
33793;DHT22;20105;48.764;9.178;2022-11-15T05:25:25;7.90;99.90
33793;DHT22;20105;48.764;9.178;2022-11-15T05:27:51;7.90;99.90
33793;DHT22;20105;48.764;9.178;2022-11-15T05:30:16;7.90;99.90
33793;DHT22;20105;48.764;9.178;2022-11-15T05:32:43;7.80;99.90
33793;DHT22;20105;48.764;9.178;2022-11-15T05:35:13;7.80;99.90
33793;DHT22;20105;48.764;9.178;2022-11-15T05:37:41;7.80;99.90
33793;DHT22;20105;48.764;9.178;2022-11-15T05:40:07;7.90;99.90
33793;DHT22;20105;48.764;9.178;2022-11-15T05:42:33;7.90;99.90
33793;DHT22;20105;48.764;9.178;2022-11-15T05:45:00;8.00;99.90
33793;DHT22;20105;48.764;9.178;2022-11-15T05:47:29;8.00;99.90
33793;DHT22;20105;48.764;9.178;2022-11-15T05:49:57;8.00;99.90
33793;DHT22;20105;48.764;9.178;2022-11-15T05:52:25;8.10;99.90
33793;DHT22;20105;48.764;9.178;2022-11-15T05:54:53;8.10;99.90
33793;DHT22;20105;48.764;9.178;2022-11-15T05:57:21;8.10;99.90
33793;DHT22;20105;48.764;9.178;2022-11-15T05:59:46;8.10;99.90
33793;DHT22;20105;48.764;9.178;2022-11-15T06:02:12;8.20;99.90
33793;DHT22;20105;48.764;9.178;2022-11-15T06:04:37;8.20;99.90
33793;DHT22;20105;48.764;9.178;2022-11-15T06:07:03;8.20;99.90
33793;DHT22;20105;48.764;9.178;2022-11-15T06:09:29;8.20;99.90
33793;DHT22;20105;48.764;9.178;2022-11-15T06:11:54;8.20;99.90
33793;DHT22;20105;48.764;9.178;2022-11-15T06:14:20;8.20;99.90
33793;DHT22;20105;48.764;9.178;2022-11-15T06:16:45;8.20;99.90
33793;DHT22;20105;48.764;9.178;2022-11-15T06:19:11;8.30;99.90
33793;DHT22;20105;48.764;9.178;2022-11-15T06:21:36;8.30;99.90
33793;DHT22;20105;48.764;9.178;2022-11-15T06:24:02;8.20;99.90
33793;DHT22;20105;48.764;9.178;2022-11-15T06:26:28;8.20;99.90
33793;DHT22;20105;48.764;9.178;2022-11-15T06:28:53;8.20;99.90
33793;DHT22;20105;48.764;9.178;2022-11-15T06:31:19;8.10;99.90
33793;DHT22;20105;48.764;9.178;2022-11-15T06:33:46;8.00;99.90
33793;DHT22;20105;48.764;9.178;2022-11-15T06:36:12;8.00;99.90
33793;DHT22;20105;48.764;9.178;2022-11-15T06:38:39;8.00;99.90
33793;DHT22;20105;48.764;9.178;2022-11-15T06:41:07;8.10;99.90
33793;DHT22;20105;48.764;9.178;2022-11-15T06:43:33;8.10;99.90
33793;DHT22;20105;48.764;9.178;2022-11-15T06:46:00;8.20;99.90
33793;DHT22;20105;48.764;9.178;2022-11-15T06:48:26;8.20;99.90
33793;DHT22;20105;48.764;9.178;2022-11-15T06:50:53;8.20;99.90
33793;DHT22;20105;48.764;9.178;2022-11-15T06:53:18;8.20;99.90
33793;DHT22;20105;48.764;9.178;2022-11-15T06:55:44;8.30;99.90
33793;DHT22;20105;48.764;9.178;2022-11-15T06:58:10;8.30;99.90
33793;DHT22;20105;48.764;9.178;2022-11-15T07:00:35;8.30;99.90
33793;DHT22;20105;48.764;9.178;2022-11-15T07:03:02;8.40;99.90
33793;DHT22;20105;48.764;9.178;2022-11-15T07:05:29;8.40;99.90
33793;DHT22;20105;48.764;9.178;2022-11-15T07:07:55;8.40;99.90
33793;DHT22;20105;48.764;9.178;2022-11-15T07:10:22;8.40;99.90
33793;DHT22;20105;48.764;9.178;2022-11-15T07:12:53;8.50;99.90
33793;DHT22;20105;48.764;9.178;2022-11-15T07:15:20;8.50;99.90
33793;DHT22;20105;48.764;9.178;2022-11-15T07:17:46;8.50;99.90
33793;DHT22;20105;48.764;9.178;2022-11-15T07:20:12;8.60;99.90
33793;DHT22;20105;48.764;9.178;2022-11-15T07:22:41;8.60;99.90
33793;DHT22;20105;48.764;9.178;2022-11-15T07:25:07;8.60;99.90
33793;DHT22;20105;48.764;9.178;2022-11-15T07:27:33;8.70;99.90
33793;DHT22;20105;48.764;9.178;2022-11-15T07:29:58;8.80;99.90
33793;DHT22;20105;48.764;9.178;2022-11-15T07:32:24;8.80;99.90
33793;DHT22;20105;48.764;9.178;2022-11-15T07:34:49;8.90;99.90
33793;DHT22;20105;48.764;9.178;2022-11-15T07:37:15;9.00;99.90
33793;DHT22;20105;48.764;9.178;2022-11-15T07:39:42;9.10;99.90
33793;DHT22;20105;48.764;9.178;2022-11-15T07:42:07;9.20;99.90
33793;DHT22;20105;48.764;9.178;2022-11-15T07:44:52;9.20;99.90
33793;DHT22;20105;48.764;9.178;2022-11-15T07:47:17;9.40;99.90
33793;DHT22;20105;48.764;9.178;2022-11-15T07:49:43;9.40;99.90
33793;DHT22;20105;48.764;9.178;2022-11-15T07:52:09;9.60;99.90
33793;DHT22;20105;48.764;9.178;2022-11-15T07:54:37;9.70;99.90
33793;DHT22;20105;48.764;9.178;2022-11-15T07:57:03;9.80;99.90
33793;DHT22;20105;48.764;9.178;2022-11-15T07:59:29;9.90;99.90
33793;DHT22;20105;48.764;9.178;2022-11-15T08:01:54;10.00;99.90
33793;DHT22;20105;48.764;9.178;2022-11-15T08:04:20;10.10;99.90
33793;DHT22;20105;48.764;9.178;2022-11-15T08:06:45;10.10;99.90
33793;DHT22;20105;48.764;9.178;2022-11-15T08:09:11;10.20;99.90
33793;DHT22;20105;48.764;9.178;2022-11-15T08:11:37;10.30;99.90
33793;DHT22;20105;48.764;9.178;2022-11-15T08:14:02;10.40;99.90
33793;DHT22;20105;48.764;9.178;2022-11-15T08:16:28;10.50;99.90
33793;DHT22;20105;48.764;9.178;2022-11-15T08:18:54;10.60;99.90
33793;DHT22;20105;48.764;9.178;2022-11-15T08:21:20;10.60;99.90
33793;DHT22;20105;48.764;9.178;2022-11-15T08:23:46;10.60;99.90
33793;DHT22;20105;48.764;9.178;2022-11-15T08:26:12;10.70;99.90
33793;DHT22;20105;48.764;9.178;2022-11-15T08:28:38;10.70;99.90
33793;DHT22;20105;48.764;9.178;2022-11-15T08:31:04;10.70;99.90
33793;DHT22;20105;48.764;9.178;2022-11-15T08:33:31;10.70;99.90
33793;DHT22;20105;48.764;9.178;2022-11-15T08:35:57;10.60;99.90
33793;DHT22;20105;48.764;9.178;2022-11-15T08:38:23;10.60;99.90
33793;DHT22;20105;48.764;9.178;2022-11-15T08:40:51;10.60;99.90
33793;DHT22;20105;48.764;9.178;2022-11-15T08:43:17;10.70;99.90
33793;DHT22;20105;48.764;9.178;2022-11-15T08:45:42;10.60;99.90
33793;DHT22;20105;48.764;9.178;2022-11-15T08:48:08;10.70;99.90
33793;DHT22;20105;48.764;9.178;2022-11-15T08:50:34;10.70;99.90
33793;DHT22;20105;48.764;9.178;2022-11-15T08:53:10;10.70;99.90
33793;DHT22;20105;48.764;9.178;2022-11-15T08:55:37;10.80;99.90
33793;DHT22;20105;48.764;9.178;2022-11-15T08:58:03;10.90;99.90
33793;DHT22;20105;48.764;9.178;2022-11-15T09:00:29;11.00;99.90
33793;DHT22;20105;48.764;9.178;2022-11-15T09:02:54;11.30;99.90
33793;DHT22;20105;48.764;9.178;2022-11-15T09:05:20;11.40;99.90
33793;DHT22;20105;48.764;9.178;2022-11-15T09:07:46;11.60;99.90
33793;DHT22;20105;48.764;9.178;2022-11-15T09:10:11;11.80;99.90
33793;DHT22;20105;48.764;9.178;2022-11-15T09:12:37;12.00;99.90
33793;DHT22;20105;48.764;9.178;2022-11-15T09:15:04;12.20;99.90
33793;DHT22;20105;48.764;9.178;2022-11-15T09:17:30;12.40;99.90
33793;DHT22;20105;48.764;9.178;2022-11-15T09:19:55;12.40;99.90
33793;DHT22;20105;48.764;9.178;2022-11-15T09:22:21;12.50;99.90
33793;DHT22;20105;48.764;9.178;2022-11-15T09:24:46;12.70;99.90
33793;DHT22;20105;48.764;9.178;2022-11-15T09:27:12;12.90;99.90
33793;DHT22;20105;48.764;9.178;2022-11-15T09:29:38;13.00;99.90
33793;DHT22;20105;48.764;9.178;2022-11-15T09:32:04;13.10;99.90
33793;DHT22;20105;48.764;9.178;2022-11-15T09:34:29;13.20;99.90
33793;DHT22;20105;48.764;9.178;2022-11-15T09:36:55;13.30;99.90
33793;DHT22;20105;48.764;9.178;2022-11-15T09:39:21;13.50;99.90
33793;DHT22;20105;48.764;9.178;2022-11-15T09:45:08;13.60;99.80
33793;DHT22;20105;48.764;9.178;2022-11-15T09:47:51;13.60;99.90
33793;DHT22;20105;48.764;9.178;2022-11-15T09:50:28;13.60;99.90
33793;DHT22;20105;48.764;9.178;2022-11-15T09:52:56;13.60;99.90
33793;DHT22;20105;48.764;9.178;2022-11-15T09:55:32;13.70;99.50
33793;DHT22;20105;48.764;9.178;2022-11-15T09:58:10;13.90;99.60
33793;DHT22;20105;48.764;9.178;2022-11-15T10:00:44;14.00;98.70
33793;DHT22;20105;48.764;9.178;2022-11-15T10:03:22;14.20;98.20
33793;DHT22;20105;48.764;9.178;2022-11-15T10:05:50;14.20;98.10
33793;DHT22;20105;48.764;9.178;2022-11-15T10:11:01;14.10;98.60
33793;DHT22;20105;48.764;9.178;2022-11-15T10:13:32;14.10;97.60
33793;DHT22;20105;48.764;9.178;2022-11-15T10:22:00;14.20;98.40
33793;DHT22;20105;48.764;9.178;2022-11-15T10:24:34;14.10;98.30
33793;DHT22;20105;48.764;9.178;2022-11-15T10:27:00;14.10;98.60
33793;DHT22;20105;48.764;9.178;2022-11-15T10:29:26;14.30;98.80
33793;DHT22;20105;48.764;9.178;2022-11-15T10:31:52;14.30;97.50
33793;DHT22;20105;48.764;9.178;2022-11-15T10:34:20;14.40;98.10
33793;DHT22;20105;48.764;9.178;2022-11-15T10:36:57;14.30;98.30
33793;DHT22;20105;48.764;9.178;2022-11-15T10:39:22;14.20;97.80
33793;DHT22;20105;48.764;9.178;2022-11-15T10:41:49;14.30;97.70
33793;DHT22;20105;48.764;9.178;2022-11-15T10:44:30;14.40;97.80
33793;DHT22;20105;48.764;9.178;2022-11-15T10:49:29;14.30;98.40
33793;DHT22;20105;48.764;9.178;2022-11-15T10:52:16;14.20;99.60
33793;DHT22;20105;48.764;9.178;2022-11-15T10:54:51;14.20;99.20
33793;DHT22;20105;48.764;9.178;2022-11-15T10:57:30;14.30;99.70
33793;DHT22;20105;48.764;9.178;2022-11-15T11:00:06;14.30;99.60
33793;DHT22;20105;48.764;9.178;2022-11-15T11:02:44;14.50;99.50
33793;DHT22;20105;48.764;9.178;2022-11-15T11:05:30;14.30;99.20
33793;DHT22;20105;48.764;9.178;2022-11-15T11:07:59;14.40;99.40
33793;DHT22;20105;48.764;9.178;2022-11-15T11:10:27;14.40;99.90
33793;DHT22;20105;48.764;9.178;2022-11-15T11:12:52;14.30;99.90
33793;DHT22;20105;48.764;9.178;2022-11-15T11:15:18;14.00;99.90
33793;DHT22;20105;48.764;9.178;2022-11-15T11:18:07;14.10;99.90
33793;DHT22;20105;48.764;9.178;2022-11-15T11:20:46;14.10;99.90
33793;DHT22;20105;48.764;9.178;2022-11-15T11:26:17;14.20;99.90
33793;DHT22;20105;48.764;9.178;2022-11-15T11:29:00;14.20;99.90
33793;DHT22;20105;48.764;9.178;2022-11-15T11:31:54;14.30;99.90
33793;DHT22;20105;48.764;9.178;2022-11-15T11:40:29;14.30;99.90
33793;DHT22;20105;48.764;9.178;2022-11-15T11:43:25;14.20;99.90
33793;DHT22;20105;48.764;9.178;2022-11-15T11:46:14;14.20;99.90
33793;DHT22;20105;48.764;9.178;2022-11-15T11:48:46;14.40;99.90
33793;DHT22;20105;48.764;9.178;2022-11-15T11:51:28;14.60;99.90
33793;DHT22;20105;48.764;9.178;2022-11-15T11:54:03;14.70;99.70
33793;DHT22;20105;48.764;9.178;2022-11-15T11:56:35;14.70;99.10
33793;DHT22;20105;48.764;9.178;2022-11-15T12:01:42;14.70;99.70
33793;DHT22;20105;48.764;9.178;2022-11-15T12:04:29;14.90;99.30
33793;DHT22;20105;48.764;9.178;2022-11-15T12:07:15;15.10;98.70
33793;DHT22;20105;48.764;9.178;2022-11-15T12:10:03;15.30;98.10
33793;DHT22;20105;48.764;9.178;2022-11-15T12:17:28;15.60;97.80
33793;DHT22;20105;48.764;9.178;2022-11-15T12:20:03;15.30;97.70
33793;DHT22;20105;48.764;9.178;2022-11-15T12:25:52;15.10;98.60
33793;DHT22;20105;48.764;9.178;2022-11-15T12:31:00;14.80;99.60
33793;DHT22;20105;48.764;9.178;2022-11-15T12:33:41;14.70;99.70
33793;DHT22;20105;48.764;9.178;2022-11-15T12:38:58;14.60;99.90
33793;DHT22;20105;48.764;9.178;2022-11-15T12:41:28;14.60;99.90
33793;DHT22;20105;48.764;9.178;2022-11-15T12:43:54;14.60;99.90
33793;DHT22;20105;48.764;9.178;2022-11-15T12:49:02;14.50;99.90
33793;DHT22;20105;48.764;9.178;2022-11-15T13:04:47;14.40;99.90
33793;DHT22;20105;48.764;9.178;2022-11-15T13:13:03;14.50;99.90
33793;DHT22;20105;48.764;9.178;2022-11-15T13:18:35;14.30;99.90
33793;DHT22;20105;48.764;9.178;2022-11-15T13:21:02;14.30;99.90
33793;DHT22;20105;48.764;9.178;2022-11-15T13:23:54;14.40;99.90
33793;DHT22;20105;48.764;9.178;2022-11-15T13:26:21;14.30;99.90
33793;DHT22;20105;48.764;9.178;2022-11-15T13:28:48;14.30;99.90
33793;DHT22;20105;48.764;9.178;2022-11-15T13:33:51;14.10;99.90
33793;DHT22;20105;48.764;9.178;2022-11-15T13:36:27;14.00;99.90
33793;DHT22;20105;48.764;9.178;2022-11-15T13:39:25;14.00;99.90
33793;DHT22;20105;48.764;9.178;2022-11-15T13:41:52;14.10;99.90
33793;DHT22;20105;48.764;9.178;2022-11-15T13:44:35;14.10;99.90
33793;DHT22;20105;48.764;9.178;2022-11-15T13:47:15;14.10;99.90
33793;DHT22;20105;48.764;9.178;2022-11-15T13:49:41;14.20;99.90
33793;DHT22;20105;48.764;9.178;2022-11-15T13:52:10;14.20;99.90
33793;DHT22;20105;48.764;9.178;2022-11-15T13:54:44;14.30;99.90
33793;DHT22;20105;48.764;9.178;2022-11-15T13:57:26;14.30;99.90
33793;DHT22;20105;48.764;9.178;2022-11-15T13:59:55;14.30;99.90
33793;DHT22;20105;48.764;9.178;2022-11-15T14:05:05;14.20;99.90
33793;DHT22;20105;48.764;9.178;2022-11-15T14:07:37;14.10;99.90
33793;DHT22;20105;48.764;9.178;2022-11-15T14:12:51;14.00;99.90
33793;DHT22;20105;48.764;9.178;2022-11-15T14:17:48;13.60;99.90
33793;DHT22;20105;48.764;9.178;2022-11-15T14:22:57;13.50;99.90
33793;DHT22;20105;48.764;9.178;2022-11-15T14:25:34;13.40;99.90
33793;DHT22;20105;48.764;9.178;2022-11-15T14:30:39;13.50;99.90
33793;DHT22;20105;48.764;9.178;2022-11-15T14:33:37;13.40;99.90
33793;DHT22;20105;48.764;9.178;2022-11-15T14:36:18;13.50;99.90
33793;DHT22;20105;48.764;9.178;2022-11-15T14:38:44;13.50;99.90
33793;DHT22;20105;48.764;9.178;2022-11-15T14:41:21;13.50;99.90
33793;DHT22;20105;48.764;9.178;2022-11-15T14:43:47;13.60;99.90
33793;DHT22;20105;48.764;9.178;2022-11-15T14:46:13;13.60;99.90
33793;DHT22;20105;48.764;9.178;2022-11-15T14:48:38;13.70;99.90
33793;DHT22;20105;48.764;9.178;2022-11-15T14:51:11;13.70;99.90
33793;DHT22;20105;48.764;9.178;2022-11-15T14:53:37;13.70;99.90
33793;DHT22;20105;48.764;9.178;2022-11-15T14:56:03;13.70;99.90
33793;DHT22;20105;48.764;9.178;2022-11-15T14:58:28;13.70;99.90
33793;DHT22;20105;48.764;9.178;2022-11-15T15:00:54;13.70;99.90
33793;DHT22;20105;48.764;9.178;2022-11-15T15:03:19;13.70;99.90
33793;DHT22;20105;48.764;9.178;2022-11-15T15:05:45;13.70;99.90
33793;DHT22;20105;48.764;9.178;2022-11-15T15:08:10;13.60;99.90
33793;DHT22;20105;48.764;9.178;2022-11-15T15:10:42;13.60;99.90
33793;DHT22;20105;48.764;9.178;2022-11-15T15:13:23;13.60;99.90
33793;DHT22;20105;48.764;9.178;2022-11-15T15:15:50;13.60;99.90
33793;DHT22;20105;48.764;9.178;2022-11-15T15:18:17;13.50;99.90
33793;DHT22;20105;48.764;9.178;2022-11-15T15:20:44;13.50;99.90
33793;DHT22;20105;48.764;9.178;2022-11-15T15:23:16;13.40;99.90
33793;DHT22;20105;48.764;9.178;2022-11-15T15:25:43;13.40;99.90
33793;DHT22;20105;48.764;9.178;2022-11-15T15:28:11;13.50;99.90
33793;DHT22;20105;48.764;9.178;2022-11-15T15:30:36;13.50;99.90
33793;DHT22;20105;48.764;9.178;2022-11-15T15:33:02;13.50;99.90
33793;DHT22;20105;48.764;9.178;2022-11-15T15:35:30;13.50;99.90
33793;DHT22;20105;48.764;9.178;2022-11-15T15:37:57;13.50;99.90
33793;DHT22;20105;48.764;9.178;2022-11-15T15:40:24;13.50;99.90
33793;DHT22;20105;48.764;9.178;2022-11-15T15:42:50;13.50;99.90
33793;DHT22;20105;48.764;9.178;2022-11-15T15:45:16;13.50;99.90
33793;DHT22;20105;48.764;9.178;2022-11-15T15:47:42;13.50;99.90
33793;DHT22;20105;48.764;9.178;2022-11-15T15:50:31;13.50;99.90
33793;DHT22;20105;48.764;9.178;2022-11-15T15:52:59;13.50;99.90
33793;DHT22;20105;48.764;9.178;2022-11-15T15:55:25;13.50;99.90
33793;DHT22;20105;48.764;9.178;2022-11-15T15:57:51;13.60;99.90
33793;DHT22;20105;48.764;9.178;2022-11-15T16:00:17;13.50;99.90
33793;DHT22;20105;48.764;9.178;2022-11-15T16:02:43;13.50;99.90
33793;DHT22;20105;48.764;9.178;2022-11-15T16:05:10;13.50;99.90
33793;DHT22;20105;48.764;9.178;2022-11-15T16:07:36;13.60;99.90
33793;DHT22;20105;48.764;9.178;2022-11-15T16:10:21;13.60;99.90
33793;DHT22;20105;48.764;9.178;2022-11-15T16:12:47;13.60;99.90
33793;DHT22;20105;48.764;9.178;2022-11-15T16:15:13;13.60;99.90
33793;DHT22;20105;48.764;9.178;2022-11-15T16:17:53;13.60;99.90
33793;DHT22;20105;48.764;9.178;2022-11-15T16:23:00;13.60;99.90
33793;DHT22;20105;48.764;9.178;2022-11-15T16:25:26;13.60;99.90
33793;DHT22;20105;48.764;9.178;2022-11-15T16:27:52;13.60;99.90
33793;DHT22;20105;48.764;9.178;2022-11-15T16:30:19;13.60;99.90
33793;DHT22;20105;48.764;9.178;2022-11-15T16:32:45;13.70;99.90
33793;DHT22;20105;48.764;9.178;2022-11-15T16:35:15;13.60;99.90
33793;DHT22;20105;48.764;9.178;2022-11-15T16:37:42;13.70;99.90
33793;DHT22;20105;48.764;9.178;2022-11-15T16:40:28;13.70;99.90
33793;DHT22;20105;48.764;9.178;2022-11-15T16:42:56;13.70;99.90
33793;DHT22;20105;48.764;9.178;2022-11-15T16:45:22;13.70;99.90
33793;DHT22;20105;48.764;9.178;2022-11-15T16:47:48;13.70;99.90
33793;DHT22;20105;48.764;9.178;2022-11-15T16:50:25;13.70;99.90
33793;DHT22;20105;48.764;9.178;2022-11-15T16:52:53;13.70;99.90
33793;DHT22;20105;48.764;9.178;2022-11-15T16:55:19;13.70;99.90
33793;DHT22;20105;48.764;9.178;2022-11-15T16:57:45;13.70;99.90
33793;DHT22;20105;48.764;9.178;2022-11-15T17:00:11;13.70;99.90
33793;DHT22;20105;48.764;9.178;2022-11-15T17:02:41;13.70;99.90
33793;DHT22;20105;48.764;9.178;2022-11-15T17:05:07;13.60;99.90
33793;DHT22;20105;48.764;9.178;2022-11-15T17:07:33;13.50;99.90
33793;DHT22;20105;48.764;9.178;2022-11-15T17:09:58;13.40;99.90
33793;DHT22;20105;48.764;9.178;2022-11-15T17:12:24;13.30;99.90
33793;DHT22;20105;48.764;9.178;2022-11-15T17:14:49;13.20;99.90
33793;DHT22;20105;48.764;9.178;2022-11-15T17:17:15;13.20;99.90
33793;DHT22;20105;48.764;9.178;2022-11-15T17:19:41;13.30;99.90
33793;DHT22;20105;48.764;9.178;2022-11-15T17:22:06;13.30;99.90
33793;DHT22;20105;48.764;9.178;2022-11-15T17:24:32;13.40;99.90
33793;DHT22;20105;48.764;9.178;2022-11-15T17:26:57;13.30;99.90
33793;DHT22;20105;48.764;9.178;2022-11-15T17:29:23;13.20;99.90
33793;DHT22;20105;48.764;9.178;2022-11-15T17:31:49;13.10;99.90
33793;DHT22;20105;48.764;9.178;2022-11-15T17:34:15;13.00;99.90
33793;DHT22;20105;48.764;9.178;2022-11-15T17:36:40;13.00;99.90
33793;DHT22;20105;48.764;9.178;2022-11-15T17:39:06;13.00;99.90